Time;durP1;ratioP1;P1;durP2;ratioP2;P2;SDS_P1;SDS_P2;PMS_P1;PMS_P2;Temp;Humidity;BMP_temperature;BMP_pressure;BME280_temperature;BME280_humidity;BME280_pressure;Samples;Min_cycle;Max_cycle;Signal;HPM_P1;HPM_P2
2023/02/17 00:01:25;;;;;;;12.13;11.03;;;;;;;10.62;98.78;101554.50;6231714;28;20298;-70
2023/02/17 00:04:46;;;;;;;10.40;9.43;;;;;;;10.85;98.13;101558.09;6234644;28;20238;-69
2023/02/17 00:08:08;;;;;;;10.30;9.20;;;;;;;10.65;98.96;101554.28;6229631;28;20236;-69
2023/02/17 00:11:29;;;;;;;11.77;10.13;;;;;;;10.56;99.54;101546.91;6238873;28;20629;-69
2023/02/17 00:14:50;;;;;;;12.00;10.73;;;;;;;10.68;99.00;101547.81;6233588;28;20224;-70
2023/02/17 00:18:11;;;;;;;11.57;10.10;;;;;;;10.68;98.83;101550.50;6221488;28;20794;-70
2023/02/17 00:21:32;;;;;;;14.07;12.63;;;;;;;10.69;99.69;101539.59;6242274;28;20559;-70
2023/02/17 00:24:54;;;;;;;13.77;12.40;;;;;;;10.63;99.53;101545.47;6225294;28;20311;-70
2023/02/17 00:28:15;;;;;;;13.90;12.10;;;;;;;10.69;100.00;101539.59;6223281;28;20240;-70
2023/02/17 00:31:36;;;;;;;15.53;11.87;;;;;;;10.96;98.54;101534.69;6235972;28;20232;-70
2023/02/17 00:34:57;;;;;;;15.17;12.47;;;;;;;10.91;98.65;101538.75;6224062;28;20236;-69
2023/02/17 00:38:18;;;;;;;13.77;11.50;;;;;;;10.57;100.00;101540.56;6233096;28;20913;-70
2023/02/17 00:41:41;;;;;;;15.40;12.83;;;;;;;10.62;100.00;101532.09;6253113;28;20492;-69
2023/02/17 00:45:02;;;;;;;16.17;12.53;;;;;;;10.86;99.51;101528.31;6225871;28;20232;-69
2023/02/17 00:48:23;;;;;;;16.87;14.50;;;;;;;10.63;100.00;101531.97;6230210;28;21224;-70
2023/02/17 00:51:44;;;;;;;12.67;11.33;;;;;;;10.79;99.92;101529.78;6242016;28;20516;-69
2023/02/17 00:55:06;;;;;;;15.97;12.97;;;;;;;10.83;99.60;101525.00;6224293;28;20485;-70
2023/02/17 00:58:28;;;;;;;24.20;11.17;;;;;;;10.86;99.25;101527.47;6216765;28;20270;-70
2023/02/17 01:01:50;;;;;;;13.47;12.07;;;;;;;11.00;99.00;101524.50;6238095;28;20514;-69
2023/02/17 01:05:11;;;;;;;14.87;12.30;;;;;;;10.90;99.17;101523.53;6249112;28;20547;-69
2023/02/17 01:08:31;;;;;;;14.90;11.70;;;;;;;10.77;100.00;101523.66;6241114;28;20236;-70
2023/02/17 01:11:52;;;;;;;13.93;12.53;;;;;;;10.80;100.00;101511.75;6236739;28;20625;-70
2023/02/17 01:15:15;;;;;;;14.30;12.83;;;;;;;11.04;100.00;101499.88;6251994;28;20690;-69
2023/02/17 01:18:36;;;;;;;21.10;14.27;;;;;;;10.97;99.98;101495.94;6233288;28;20231;-70
2023/02/17 01:21:57;;;;;;;15.33;13.70;;;;;;;10.64;100.00;101493.22;6238338;28;20236;-69
2023/02/17 01:25:18;;;;;;;15.73;12.70;;;;;;;11.01;100.00;101489.31;6254120;28;20258;-69
2023/02/17 01:28:39;;;;;;;14.90;13.43;;;;;;;11.40;98.11;101481.66;6242182;28;20231;-69
2023/02/17 01:32:01;;;;;;;20.53;15.83;;;;;;;11.32;98.35;101482.28;6228529;28;20299;-69
2023/02/17 01:35:22;;;;;;;15.87;14.03;;;;;;;10.97;99.18;101481.59;6233032;28;20240;-69
2023/02/17 01:38:45;;;;;;;14.90;12.10;;;;;;;11.32;99.54;101474.19;6239219;28;20662;-70
2023/02/17 01:42:05;;;;;;;16.17;13.63;;;;;;;10.94;100.00;101469.22;6235916;28;20228;-70
2023/02/17 01:45:47;;;;;;;16.63;14.23;;;;;;;11.09;100.00;101462.59;6219113;28;20234;-69
2023/02/17 01:49:19;;;;;;;16.33;12.33;;;;;;;10.96;100.00;101459.16;6242722;28;20358;-69
2023/02/17 01:52:42;;;;;;;15.43;12.77;;;;;;;11.11;100.00;101457.91;6236856;28;20228;-70
2023/02/17 01:56:04;;;;;;;14.60;13.10;;;;;;;11.08;100.00;101447.38;6218779;28;20539;-70
2023/02/17 01:59:25;;;;;;;16.17;13.93;;;;;;;11.02;100.00;101436.22;6253604;28;20326;-69
2023/02/17 02:02:50;;;;;;;17.57;15.10;;;;;;;11.06;100.00;101429.59;6235871;28;20228;-70
2023/02/17 02:06:20;;;;;;;15.93;12.50;;;;;;;11.00;100.00;101433.66;6232428;28;20224;-70
2023/02/17 02:09:45;;;;;;;14.07;10.97;;;;;;;11.39;98.46;101416.00;6222644;28;20306;-70
2023/02/17 02:13:07;;;;;;;15.57;13.53;;;;;;;11.04;100.00;101409.97;6226856;28;20348;-70
2023/02/17 02:16:35;;;;;;;14.10;11.90;;;;;;;11.23;99.33;101392.13;6231257;28;20224;-70
2023/02/17 02:20:16;;;;;;;11.90;10.63;;;;;;;11.48;98.21;101382.84;6223966;28;20235;-70
2023/02/17 02:23:50;;;;;;;10.60;9.57;;;;;;;11.44;98.66;101375.97;6227038;28;20231;-70
2023/02/17 02:27:34;;;;;;;19.17;11.63;;;;;;;11.13;99.94;101390.31;6228068;28;20229;-70
2023/02/17 02:31:24;;;;;;;12.60;11.33;;;;;;;11.30;100.00;101373.59;6220620;28;20328;-70
2023/02/17 02:34:53;;;;;;;14.20;11.07;;;;;;;11.19;100.00;101371.78;6230981;28;20232;-69
2023/02/17 02:38:18;;;;;;;12.53;10.23;;;;;;;11.55;99.88;101361.56;6220689;28;20279;-70
2023/02/17 02:41:42;;;;;;;12.13;10.43;;;;;;;11.50;98.84;101361.09;6258821;28;20844;-69
2023/02/17 02:45:07;;;;;;;10.37;8.37;;;;;;;11.47;99.94;101356.84;6255925;28;20592;-69
2023/02/17 02:48:28;;;;;;;10.03;8.97;;;;;;;11.19;100.00;101360.13;6228202;28;20595;-70
2023/02/17 02:51:58;;;;;;;10.87;8.67;;;;;;;11.31;100.00;101363.63;6225484;28;20229;-69
2023/02/17 02:55:29;;;;;;;7.67;6.97;;;;;;;11.18;100.00;101351.16;6236183;28;20262;-69
2023/02/17 02:59:00;;;;;;;11.33;10.13;;;;;;;11.32;100.00;101352.72;6223381;28;20244;-70
2023/02/17 03:02:29;;;;;;;7.13;6.43;;;;;;;11.34;100.00;101339.09;6248959;28;20228;-69
2023/02/17 03:05:55;;;;;;;9.00;8.10;;;;;;;11.47;99.77;101340.63;6235395;28;20225;-70
2023/02/17 03:09:22;;;;;;;8.67;7.87;;;;;;;11.61;99.25;101343.00;6234438;28;20235;-70
2023/02/17 03:12:43;;;;;;;11.33;7.73;;;;;;;11.38;100.00;101336.00;6229568;28;20228;-70
2023/02/17 03:16:07;;;;;;;8.43;7.73;;;;;;;11.67;99.02;101328.16;6231201;28;20232;-70
2023/02/17 03:19:28;;;;;;;10.43;9.33;;;;;;;11.33;100.00;101322.03;6250478;28;20223;-70
2023/02/17 03:22:50;;;;;;;10.13;8.23;;;;;;;11.58;99.68;101316.25;6244675;28;20507;-70
2023/02/17 03:26:12;;;;;;;11.33;8.67;;;;;;;11.22;100.00;101312.13;6242286;28;20228;-70
2023/02/17 03:29:33;;;;;;;8.10;7.30;;;;;;;11.50;100.00;101309.78;6227566;28;20298;-70
2023/02/17 03:32:54;;;;;;;9.50;8.50;;;;;;;11.21;100.00;101310.44;6245740;28;20227;-70
2023/02/17 03:36:15;;;;;;;9.97;8.93;;;;;;;11.58;100.00;101310.84;6251029;28;20225;-69
2023/02/17 03:39:36;;;;;;;11.63;9.43;;;;;;;11.65;99.39;101306.66;6233266;28;20223;-70
2023/02/17 03:42:58;;;;;;;10.00;7.70;;;;;;;11.46;100.00;101298.41;6235216;28;20224;-69
2023/02/17 03:46:19;;;;;;;8.53;7.47;;;;;;;11.50;100.00;101297.16;6233461;28;20315;-69
2023/02/17 03:49:40;;;;;;;10.40;9.37;;;;;;;11.56;99.24;101291.22;6237682;28;20326;-70
2023/02/17 03:53:01;;;;;;;10.13;8.33;;;;;;;11.54;99.23;101306.72;6233256;28;20237;-70
2023/02/17 03:56:22;;;;;;;7.60;6.80;;;;;;;11.37;99.88;101304.59;6237159;28;20240;-70
2023/02/17 03:59:44;;;;;;;9.47;8.33;;;;;;;11.53;99.92;101290.66;6230446;28;20228;-70
2023/02/17 04:03:06;;;;;;;9.17;8.10;;;;;;;11.59;99.20;101285.56;6240885;28;20232;-69
2023/02/17 04:06:27;;;;;;;10.17;8.33;;;;;;;11.68;99.29;101295.59;6238352;28;20233;-70
2023/02/17 04:09:48;;;;;;;9.57;8.17;;;;;;;11.82;98.36;101283.59;6223420;28;20279;-70
2023/02/17 04:13:09;;;;;;;10.60;9.50;;;;;;;11.80;99.32;101272.09;6219605;28;20236;-70
2023/02/17 04:16:32;;;;;;;8.07;6.77;;;;;;;11.73;98.66;101285.25;6229936;28;21069;-70
2023/02/17 04:19:53;;;;;;;7.57;5.70;;;;;;;11.70;99.75;101271.19;6245943;28;20757;-69
2023/02/17 04:23:14;;;;;;;8.13;6.77;;;;;;;11.93;99.11;101273.56;6222459;28;20320;-69
2023/02/17 04:26:35;;;;;;;4.47;4.07;;;;;;;11.55;99.13;101272.47;6254469;28;20271;-70
2023/02/17 04:29:56;;;;;;;5.77;5.17;;;;;;;12.03;97.67;101281.72;6242658;28;20251;-70
2023/02/17 04:33:19;;;;;;;6.33;5.70;;;;;;;11.87;96.66;101274.09;6223470;28;20231;-70
2023/02/17 04:36:40;;;;;;;5.10;4.60;;;;;;;12.04;96.99;101273.47;6240522;28;20589;-70
2023/02/17 04:40:01;;;;;;;6.60;5.50;;;;;;;11.88;96.97;101247.94;6232944;28;20231;-72
2023/02/17 04:43:22;;;;;;;5.77;5.17;;;;;;;11.93;97.96;101253.81;6230828;28;20236;-70
2023/02/17 04:46:42;;;;;;;6.97;6.27;;;;;;;12.06;97.06;101256.28;6247215;28;20232;-70
2023/02/17 04:50:06;;;;;;;8.33;7.47;;;;;;;11.82;98.37;101253.88;6245451;28;20640;-71
2023/02/17 04:53:27;;;;;;;8.20;6.77;;;;;;;11.94;97.94;101255.50;6226602;28;20233;-71
2023/02/17 04:56:48;;;;;;;7.03;5.83;;;;;;;11.79;99.14;101257.72;6237126;28;20232;-70
2023/02/17 05:00:10;;;;;;;5.90;5.30;;;;;;;11.84;97.16;101257.31;6228062;28;20233;-69
2023/02/17 05:03:31;;;;;;;7.30;6.40;;;;;;;12.09;97.98;101251.44;6236596;28;20234;-70
2023/02/17 05:06:53;;;;;;;7.83;6.67;;;;;;;12.06;97.01;101245.47;6264518;28;20556;-69
2023/02/17 05:10:15;;;;;;;6.37;5.60;;;;;;;11.92;98.07;101243.97;6237776;28;20239;-70
2023/02/17 05:13:36;;;;;;;7.43;6.53;;;;;;;12.14;97.02;101237.53;6239590;28;20329;-70
2023/02/17 05:16:57;;;;;;;8.23;7.40;;;;;;;11.97;96.18;101242.56;6251791;28;20605;-70
2023/02/17 05:20:18;;;;;;;7.93;7.23;;;;;;;12.27;95.71;101220.06;6247999;28;20647;-70
2023/02/17 05:23:40;;;;;;;9.27;7.20;;;;;;;12.21;96.98;101208.94;6220494;28;20243;-69
2023/02/17 05:27:01;;;;;;;9.70;8.50;;;;;;;12.29;96.09;101203.69;6234933;28;20224;-70
2023/02/17 05:30:22;;;;;;;7.53;6.40;;;;;;;11.70;99.43;101200.97;6238184;28;20250;-70
2023/02/17 05:33:43;;;;;;;6.47;5.83;;;;;;;11.99;98.75;101199.22;6225223;28;20310;-70
2023/02/17 05:37:04;;;;;;;8.70;7.13;;;;;;;11.97;97.40;101193.09;6258301;28;20223;-70
2023/02/17 05:40:26;;;;;;;9.67;7.47;;;;;;;12.11;98.71;101175.63;6256649;28;20688;-69
2023/02/17 05:43:47;;;;;;;8.87;6.93;;;;;;;11.74;99.96;101199.69;6247807;28;20672;-69
2023/02/17 05:47:08;;;;;;;8.83;6.97;;;;;;;11.88;100.00;101175.00;6242661;28;20237;-69
2023/02/17 05:50:29;;;;;;;9.23;7.13;;;;;;;11.92;99.61;101152.97;6239962;28;20228;-70
2023/02/17 05:53:56;;;;;;;10.07;7.90;;;;;;;11.99;98.60;101164.94;6230884;28;20230;-69
2023/02/17 05:57:18;;;;;;;10.80;8.23;;;;;;;12.00;98.72;101157.69;6224181;28;20237;-70
2023/02/17 06:00:40;;;;;;;9.03;7.93;;;;;;;12.06;98.63;101159.81;6247912;28;20228;-70
2023/02/17 06:04:00;;;;;;;10.30;8.43;;;;;;;12.10;97.90;101158.56;6245310;28;20219;-70
2023/02/17 06:07:21;;;;;;;9.87;7.57;;;;;;;11.91;98.94;101161.22;6233271;28;20244;-70
2023/02/17 06:10:42;;;;;;;9.93;8.23;;;;;;;11.90;98.50;101157.66;6231667;28;20233;-69
2023/02/17 06:14:05;;;;;;;7.57;6.73;;;;;;;11.94;99.55;101158.25;6243503;28;20291;-69
2023/02/17 06:17:26;;;;;;;10.40;7.57;;;;;;;12.12;98.10;101156.56;6242665;28;20236;-69
2023/02/17 06:20:47;;;;;;;8.80;6.43;;;;;;;11.87;98.67;101149.81;6234300;28;20237;-69
2023/02/17 06:24:08;;;;;;;10.30;8.37;;;;;;;11.86;98.28;101141.88;6234153;28;20226;-70
2023/02/17 06:27:29;;;;;;;8.73;6.80;;;;;;;11.92;99.51;101131.38;6228999;28;20232;-70
2023/02/17 06:30:51;;;;;;;10.23;7.67;;;;;;;11.74;99.09;101118.66;6218607;28;20232;-69
2023/02/17 06:34:12;;;;;;;11.00;8.03;;;;;;;11.66;100.00;101122.03;6228037;28;20271;-69
2023/02/17 06:37:33;;;;;;;12.37;9.37;;;;;;;11.86;99.95;101109.44;6223637;28;20615;-72
2023/02/17 06:40:54;;;;;;;10.00;7.20;;;;;;;11.53;100.00;101097.13;6212684;28;20248;-69
2023/02/17 06:44:16;;;;;;;13.03;8.77;;;;;;;11.55;100.00;101083.47;6230796;28;20311;-68
2023/02/17 06:47:38;;;;;;;8.10;6.60;;;;;;;11.39;100.00;101085.84;6237592;28;20519;-68
2023/02/17 06:50:59;;;;;;;8.93;8.03;;;;;;;11.58;100.00;101083.16;6252541;28;20226;-69
2023/02/17 06:54:20;;;;;;;11.63;7.50;;;;;;;11.61;100.00;101078.38;6239669;28;20855;-70
2023/02/17 06:57:41;;;;;;;11.17;9.90;;;;;;;11.90;99.65;101075.75;6238515;28;20224;-70
2023/02/17 07:01:02;;;;;;;11.63;8.63;;;;;;;11.51;99.78;101069.41;6239830;28;20228;-69
2023/02/17 07:04:25;;;;;;;12.20;9.23;;;;;;;11.85;98.24;101072.63;6232996;28;20235;-69
2023/02/17 07:07:46;;;;;;;12.20;9.30;;;;;;;11.85;98.75;101059.09;6246201;28;20614;-69
2023/02/17 07:11:07;;;;;;;12.77;10.57;;;;;;;11.77;98.86;101059.81;6250588;28;20232;-69
2023/02/17 07:14:28;;;;;;;12.93;11.50;;;;;;;11.58;99.42;101054.34;6225073;28;20659;-69
2023/02/17 07:17:49;;;;;;;14.93;10.37;;;;;;;11.72;99.59;101053.13;6235455;28;20240;-71
2023/02/17 07:21:11;;;;;;;13.73;10.17;;;;;;;11.85;98.88;101045.59;6213122;28;20554;-70
2023/02/17 07:24:33;;;;;;;13.93;9.87;;;;;;;11.86;98.89;101039.22;6236352;28;20231;-69
2023/02/17 07:27:54;;;;;;;12.10;8.70;;;;;;;11.92;99.63;101035.94;6226381;28;20293;-69
2023/02/17 07:31:17;;;;;;;15.93;10.93;;;;;;;11.92;98.79;101038.66;6234011;28;20575;-69
2023/02/17 07:34:38;;;;;;;13.43;9.43;;;;;;;11.83;98.70;101047.59;6246509;28;20306;-68
2023/02/17 07:38:01;;;;;;;15.13;10.50;;;;;;;11.85;98.99;101040.19;6243971;28;20232;-68
2023/02/17 07:41:27;;;;;;;11.10;8.70;;;;;;;11.83;98.06;101037.66;6237012;28;20232;-67
2023/02/17 07:44:48;;;;;;;12.37;9.93;;;;;;;11.98;97.54;101033.53;6238341;28;20235;-69
2023/02/17 07:48:10;;;;;;;12.03;10.70;;;;;;;11.85;98.24;101035.66;6229281;28;20231;-68
2023/02/17 07:51:31;;;;;;;12.33;11.10;;;;;;;11.69;97.81;101039.91;6259182;28;20967;-71
2023/02/17 07:54:53;;;;;;;14.27;11.03;;;;;;;12.13;96.41;101027.72;6261113;28;20727;-69
2023/02/17 07:58:14;;;;;;;14.60;11.07;;;;;;;12.17;96.81;101024.59;6233856;28;20734;-69
2023/02/17 08:01:35;;;;;;;12.33;9.93;;;;;;;11.85;97.60;101024.00;6237631;28;20224;-70
2023/02/17 08:04:56;;;;;;;12.77;10.97;;;;;;;11.71;98.75;101021.69;6232561;28;20223;-69
2023/02/17 08:15:35;;;;;;;12.90;10.03;;;;;;;11.82;99.46;100979.22;6233876;28;20275;-71
2023/02/17 08:18:56;;;;;;;16.03;10.20;;;;;;;12.93;94.12;100977.59;6231661;28;20227;-70
2023/02/17 08:22:18;;;;;;;14.60;11.10;;;;;;;12.34;95.39;100960.81;6241761;28;20275;-69
2023/02/17 08:25:39;;;;;;;8.10;7.17;;;;;;;12.42;94.67;100966.34;6224135;28;20755;-70
2023/02/17 08:29:01;;;;;;;12.47;9.43;;;;;;;12.41;94.84;100946.56;6231503;28;20213;-70
2023/02/17 08:32:22;;;;;;;14.93;10.33;;;;;;;12.60;94.94;100945.69;6238647;28;20228;-69
2023/02/17 08:35:44;;;;;;;11.37;8.50;;;;;;;12.34;94.63;100977.06;6244746;28;20220;-68
2023/02/17 08:39:12;;;;;;;8.63;7.47;;;;;;;12.30;96.04;100949.47;6244448;28;20232;-69
2023/02/17 08:42:33;;;;;;;9.10;7.87;;;;;;;12.08;96.71;100936.25;6244731;28;20231;-69
2023/02/17 08:45:56;;;;;;;8.37;6.77;;;;;;;12.35;95.26;100943.63;6233362;28;20248;-69
2023/02/17 08:49:18;;;;;;;14.23;9.60;;;;;;;12.25;96.24;100931.94;6257671;28;20251;-69
2023/02/17 08:52:39;;;;;;;12.03;8.53;;;;;;;12.21;96.42;100912.47;6250608;28;22137;-68
2023/02/17 08:56:00;;;;;;;10.03;8.17;;;;;;;12.20;97.75;100939.66;6239289;28;20265;-69
2023/02/17 08:59:21;;;;;;;11.13;8.43;;;;;;;12.36;96.43;100962.41;6215977;28;20618;-69
2023/02/17 09:02:43;;;;;;;10.27;8.00;;;;;;;12.31;96.13;100961.97;6250536;28;20513;-68
2023/02/17 09:06:06;;;;;;;13.43;7.90;;;;;;;12.49;96.21;100962.94;6239263;28;20657;-70
2023/02/17 09:09:27;;;;;;;11.47;7.37;;;;;;;12.05;98.16;100968.97;6248320;28;20500;-70
2023/02/17 09:12:48;;;;;;;7.83;7.03;;;;;;;11.89;98.95;100949.81;6261710;28;20917;-70
2023/02/17 09:16:10;;;;;;;8.67;6.80;;;;;;;11.72;99.68;100931.59;6237432;28;20219;-70
2023/02/17 09:19:32;;;;;;;8.63;7.13;;;;;;;12.00;99.83;100930.72;6225126;28;20255;-69
2023/02/17 09:22:53;;;;;;;9.60;7.63;;;;;;;12.13;99.13;100933.13;6231046;28;20225;-69
2023/02/17 09:26:17;;;;;;;9.13;6.67;;;;;;;11.97;98.53;100931.84;6230998;28;20231;-70
2023/02/17 09:29:39;;;;;;;9.10;7.63;;;;;;;12.33;98.13;100905.91;6246116;28;20227;-68
2023/02/17 09:33:01;;;;;;;7.20;6.47;;;;;;;12.14;98.90;100900.53;6247674;28;20228;-69
2023/02/17 09:36:27;;;;;;;9.43;8.10;;;;;;;11.93;100.00;100894.50;6235499;28;20224;-71
2023/02/17 09:39:48;;;;;;;8.73;6.53;;;;;;;12.04;99.68;100876.25;6223185;28;20438;-68
2023/02/17 09:43:14;;;;;;;12.47;8.97;;;;;;;12.18;99.65;100874.09;6231884;28;20237;-69
2023/02/17 09:46:40;;;;;;;10.87;7.30;;;;;;;12.44;99.20;100872.44;6247331;28;20224;-71
2023/02/17 09:50:03;;;;;;;8.47;7.10;;;;;;;12.29;99.12;100861.25;6258232;28;20231;-68
2023/02/17 09:53:33;;;;;;;9.43;7.57;;;;;;;12.43;100.00;100849.94;6227775;28;20462;-68
2023/02/17 09:56:56;;;;;;;6.63;5.23;;;;;;;12.19;99.63;100868.53;6241370;28;20288;-70
2023/02/17 10:00:21;;;;;;;9.47;8.30;;;;;;;12.15;100.00;100860.88;6235253;28;20223;-70
2023/02/17 10:03:46;;;;;;;12.30;7.00;;;;;;;12.43;99.58;100878.84;6220738;28;20260;-69
2023/02/17 10:07:12;;;;;;;8.37;6.63;;;;;;;12.45;98.03;100872.31;6234902;28;20307;-69
2023/02/17 10:10:43;;;;;;;7.67;6.73;;;;;;;12.44;99.39;100861.63;6259024;28;20228;-68
2023/02/17 10:14:09;;;;;;;5.20;4.70;;;;;;;-142.52;100.00;62712.56;6240364;28;20708;-69
2023/02/17 10:17:36;;;;;;;6.63;4.80;;;;;;;-142.52;100.00;62712.56;6227462;28;20806;-71
2023/02/17 10:21:02;;;;;;;7.77;6.00;;;;;;;12.78;97.47;100869.03;6237420;28;20228;-68
2023/02/17 10:24:24;;;;;;;8.53;6.43;;;;;;;12.75;97.30;100880.13;6242373;28;20246;-68
2023/02/17 10:27:53;;;;;;;7.73;6.53;;;;;;;12.69;98.30;100878.03;6248462;28;20223;-69
2023/02/17 10:31:24;;;;;;;9.23;7.13;;;;;;;12.70;98.03;100884.28;6237745;28;20235;-70
2023/02/17 10:34:58;;;;;;;11.63;7.93;;;;;;;12.62;98.29;100862.56;6227645;28;20220;-68
2023/02/17 10:38:36;;;;;;;8.60;7.70;;;;;;;12.48;100.00;100880.09;6228206;28;20977;-69
2023/02/17 10:41:57;;;;;;;11.60;8.67;;;;;;;12.70;100.00;100887.81;6241169;28;20225;-67
2023/02/17 10:45:28;;;;;;;8.30;7.50;;;;;;;12.39;100.00;100878.28;6237556;28;20253;-69
2023/02/17 10:48:52;;;;;;;12.90;8.30;;;;;;;13.07;99.50;100876.13;6223760;28;20231;-69
2023/02/17 10:52:17;;;;;;;11.27;10.30;;;;;;;12.83;99.72;100857.72;6240986;28;20724;-69
2023/02/17 10:55:47;;;;;;;11.17;7.87;;;;;;;13.01;99.79;100855.06;6257392;28;20236;-70
2023/02/17 10:59:18;;;;;;;12.23;7.97;;;;;;;12.89;100.00;100848.16;6231497;28;20220;-68
2023/02/17 11:02:43;;;;;;;8.03;6.93;;;;;;;12.93;100.00;100871.22;6234468;28;20609;-71
2023/02/17 11:06:06;;;;;;;7.67;6.60;;;;;;;12.69;99.16;100894.25;6252900;28;20630;-68
2023/02/17 11:09:31;;;;;;;9.50;7.67;;;;;;;12.84;99.57;100840.50;6225048;28;20228;-67
2023/02/17 11:12:54;;;;;;;7.80;7.10;;;;;;;12.81;99.33;100814.59;6228609;28;20244;-69
2023/02/17 11:16:26;;;;;;;13.13;8.67;;;;;;;12.85;98.62;100834.06;6225698;28;20318;-70
2023/02/17 11:19:57;;;;;;;9.43;7.43;;;;;;;12.77;98.88;100840.25;6236417;28;20236;-69
2023/02/17 11:23:24;;;;;;;10.07;6.93;;;;;;;12.98;98.89;100833.69;6233119;28;20215;-70
2023/02/17 11:26:55;;;;;;;9.87;7.80;;;;;;;13.05;98.23;100834.84;6245527;28;20235;-70
2023/02/17 11:30:18;;;;;;;6.47;5.70;;;;;;;12.96;98.00;100841.97;6239639;28;20232;-68
2023/02/17 11:33:40;;;;;;;11.37;7.30;;;;;;;12.97;98.47;100841.00;6223878;28;20240;-72
2023/02/17 11:37:16;;;;;;;7.10;6.20;;;;;;;12.98;97.96;100839.97;6248250;28;20319;-69
2023/02/17 11:40:37;;;;;;;9.93;8.93;;;;;;;12.91;100.00;100828.06;6240307;28;20645;-70
2023/02/17 11:43:59;;;;;;;8.63;6.30;;;;;;;13.12;98.00;100855.72;6238910;28;20229;-69
2023/02/17 11:47:32;;;;;;;7.83;7.13;;;;;;;13.13;98.06;100834.91;6242323;28;20239;-70
2023/02/17 11:50:59;;;;;;;8.40;5.63;;;;;;;12.77;98.87;100828.56;6241453;28;20540;-72
2023/02/17 11:54:28;;;;;;;10.97;7.70;;;;;;;12.81;98.50;100829.97;6232788;28;20798;-71
2023/02/17 11:58:07;;;;;;;11.13;7.10;;;;;;;12.69;100.00;100834.75;6229825;28;20224;-69
2023/02/17 12:01:46;;;;;;;8.60;6.37;;;;;;;12.82;100.00;100835.25;6223370;28;20237;-68
2023/02/17 12:05:21;;;;;;;9.27;5.57;;;;;;;12.79;100.00;100821.16;6243592;28;20243;-69
2023/02/17 12:09:03;;;;;;;7.80;6.13;;;;;;;12.85;100.00;100837.63;6224026;28;20305;-68
2023/02/17 12:12:37;;;;;;;8.93;6.43;;;;;;;12.60;100.00;100843.75;6231227;28;20311;-68
2023/02/17 12:16:21;;;;;;;9.53;5.00;;;;;;;13.80;99.54;100824.34;6256775;28;20322;-67
2023/02/17 12:19:49;;;;;;;10.60;6.40;;;;;;;13.03;100.00;100828.69;6231306;28;20349;-69
2023/02/17 12:23:27;;;;;;;8.83;6.47;;;;;;;13.10;100.00;100835.25;6242707;28;20684;-70
2023/02/17 12:26:53;;;;;;;11.00;6.50;;;;;;;13.04;100.00;100828.56;6237732;28;20228;-71
2023/02/17 12:30:29;;;;;;;10.27;6.47;;;;;;;13.01;100.00;100850.50;6238742;28;20224;-71
2023/02/17 12:33:59;;;;;;;6.53;5.60;;;;;;;12.85;100.00;100818.69;6246608;28;20623;-70
2023/02/17 12:37:24;;;;;;;6.77;4.53;;;;;;;12.97;100.00;100843.69;6245382;28;20319;-69
2023/02/17 12:40:50;;;;;;;6.70;5.50;;;;;;;13.07;100.00;100811.19;6227946;28;20224;-69
2023/02/17 12:44:15;;;;;;;6.83;4.67;;;;;;;12.98;100.00;100823.72;6218524;28;20625;-70
2023/02/17 12:47:54;;;;;;;4.90;4.13;;;;;;;13.12;100.00;100823.22;6225866;28;20609;-69
2023/02/17 12:51:20;;;;;;;7.27;5.23;;;;;;;13.10;100.00;100819.00;6217534;28;20241;-68
2023/02/17 12:54:48;;;;;;;9.33;5.37;;;;;;;12.92;100.00;100831.59;6229444;28;20314;-69
2023/02/17 12:58:15;;;;;;;9.87;4.50;;;;;;;13.04;100.00;100842.09;6215437;28;20236;-68
2023/02/17 13:01:39;;;;;;;7.63;6.20;;;;;;;13.13;100.00;100838.47;6229250;28;20703;-68
2023/02/17 13:05:04;;;;;;;4.60;3.77;;;;;;;13.31;100.00;100843.88;6245003;28;20235;-70
2023/02/17 13:08:34;;;;;;;4.23;3.77;;;;;;;13.23;100.00;100827.56;6219260;28;20233;-70
2023/02/17 13:12:07;;;;;;;4.97;4.53;;;;;;;13.01;100.00;100839.69;6245310;28;20232;-71
2023/02/17 13:15:32;;;;;;;6.13;3.67;;;;;;;13.05;100.00;100835.69;6219928;28;20584;-69
2023/02/17 13:18:53;;;;;;;5.30;3.63;;;;;;;13.24;100.00;100870.75;6241103;28;20247;-70
2023/02/17 13:22:23;;;;;;;4.17;3.17;;;;;;;13.23;100.00;100851.94;6237843;28;20327;-70
2023/02/17 13:25:43;;;;;;;4.33;3.63;;;;;;;13.10;100.00;100840.66;6234751;28;20235;-69
2023/02/17 13:29:19;;;;;;;5.20;3.40;;;;;;;12.99;100.00;100841.69;6237517;28;20224;-70
2023/02/17 13:32:40;;;;;;;2.87;2.57;;;;;;;13.07;100.00;100849.94;6236083;28;20723;-70
2023/02/17 13:36:12;;;;;;;4.13;3.73;;;;;;;13.14;100.00;100850.16;6227987;28;20565;-70
2023/02/17 13:39:37;;;;;;;4.30;3.70;;;;;;;13.25;100.00;100842.66;6228666;28;20220;-69
2023/02/17 13:43:09;;;;;;;18.77;3.73;;;;;;;13.30;99.84;100840.34;6234592;28;20610;-71
2023/02/17 13:46:31;;;;;;;7.97;4.47;;;;;;;13.12;98.89;100863.84;6249197;28;20239;-70
2023/02/17 13:49:52;;;;;;;3.20;3.00;;;;;;;13.46;98.00;100845.06;6239402;28;20649;-70
2023/02/17 13:53:29;;;;;;;3.30;2.63;;;;;;;13.47;97.55;100822.41;6234575;28;20228;-69
2023/02/17 13:56:54;;;;;;;2.87;2.40;;;;;;;13.16;98.81;100835.44;6244856;28;20224;-69
2023/02/17 14:00:21;;;;;;;4.73;2.60;;;;;;;13.37;98.14;100846.84;6232394;28;20220;-69
2023/02/17 14:03:46;;;;;;;6.17;4.20;;;;;;;13.14;98.35;100861.00;6228658;28;20226;-71
2023/02/17 14:07:07;;;;;;;6.43;3.37;;;;;;;13.27;96.85;100847.91;6243055;28;20232;-70
2023/02/17 14:10:28;;;;;;;4.30;3.07;;;;;;;13.50;95.67;100851.84;6242064;28;20632;-70
2023/02/17 14:13:52;;;;;;;3.80;3.43;;;;;;;13.46;95.20;100861.31;6237275;28;20620;-69
2023/02/17 14:17:26;;;;;;;2.43;2.27;;;;;;;13.32;95.24;100862.72;6245753;28;20213;-71
2023/02/17 14:20:47;;;;;;;2.87;2.57;;;;;;;13.57;93.64;100869.19;6233831;28;20240;-71
2023/02/17 14:24:24;;;;;;;6.37;3.80;;;;;;;13.75;92.22;100867.31;6233046;28;20390;-68
2023/02/17 14:27:48;;;;;;;3.13;2.83;;;;;;;13.67;91.36;100869.09;6234178;28;20604;-72
2023/02/17 14:31:20;;;;;;;4.57;2.53;;;;;;;13.68;90.62;100854.56;6222846;28;20232;-70
2023/02/17 14:34:41;;;;;;;7.63;2.30;;;;;;;13.89;89.21;100855.94;6226496;28;20264;-71
2023/02/17 14:38:19;;;;;;;2.30;1.70;;;;;;;14.03;88.64;100876.19;6242121;28;20666;-69
2023/02/17 14:41:39;;;;;;;5.33;2.97;;;;;;;14.03;89.12;100897.88;6226686;28;20229;-69
2023/02/17 14:45:00;;;;;;;7.13;2.70;;;;;;;13.92;87.31;100879.13;6234496;28;21795;-70
2023/02/17 14:48:24;;;;;;;3.33;2.63;;;;;;;13.91;86.18;100897.28;6225067;28;20485;-69
2023/02/17 14:51:44;;;;;;;14.50;3.53;;;;;;;13.62;84.34;100889.38;6238344;28;20525;-69
2023/02/17 14:55:15;;;;;;;3.33;2.13;;;;;;;13.86;83.52;100932.13;6234145;28;20534;-69
2023/02/17 14:58:35;;;;;;;6.13;4.23;;;;;;;13.83;82.55;100932.41;6237462;28;20617;-69
2023/02/17 15:01:56;;;;;;;5.73;3.10;;;;;;;13.44;80.95;100940.00;6224308;28;20232;-69
2023/02/17 15:05:19;;;;;;;5.33;2.23;;;;;;;13.63;79.94;100947.13;6219802;28;21022;-69
2023/02/17 15:08:41;;;;;;;7.17;1.70;;;;;;;13.64;77.43;101003.88;6207955;28;20231;-69
2023/02/17 15:12:04;;;;;;;16.80;3.57;;;;;;;13.56;77.89;100951.47;6252136;28;20252;-69
2023/02/17 15:15:24;;;;;;;5.70;1.93;;;;;;;13.55;76.62;100966.88;6240442;28;20539;-70
2023/02/17 15:18:45;;;;;;;2.50;2.30;;;;;;;13.63;76.37;100982.34;6227123;28;20621;-67
2023/02/17 15:22:11;;;;;;;8.60;3.90;;;;;;;13.70;76.31;100988.88;6250697;28;20256;-69
2023/02/17 15:25:33;;;;;;;7.97;2.23;;;;;;;13.55;75.70;100999.38;6252509;28;20236;-69
2023/02/17 15:28:55;;;;;;;7.90;2.20;;;;;;;13.57;74.27;100994.66;6244018;28;20227;-69
2023/02/17 15:32:17;;;;;;;5.57;2.70;;;;;;;13.28;74.36;101047.28;6253452;28;20526;-70
2023/02/17 15:35:40;;;;;;;4.37;1.67;;;;;;;13.28;73.33;101021.06;6223947;28;20236;-69
2023/02/17 15:39:02;;;;;;;5.23;2.90;;;;;;;13.18;72.84;101022.97;6239063;28;20228;-69
2023/02/17 15:42:24;;;;;;;11.53;3.00;;;;;;;13.34;72.31;101022.31;6260147;28;20232;-69
2023/02/17 15:45:46;;;;;;;7.10;5.03;;;;;;;12.96;72.47;101054.91;6250452;28;20258;-69